Time;durP1;ratioP1;P1;durP2;ratioP2;P2;SDS_P1;SDS_P2;PMS_P1;PMS_P2;Temp;Humidity;BMP_temperature;BMP_pressure;BME280_temperature;BME280_humidity;BME280_pressure;Samples;Min_cycle;Max_cycle;Signal;HPM_P1;HPM_P2
2022/10/08 00:01:35;;;;;;;1.20;1.20;;;;;;;;;;1759048;79;26401;-54
2022/10/08 00:04:02;;;;;;;1.60;1.50;;;;;;;;;;1769906;79;26289;-53
2022/10/08 00:06:31;;;;;;;1.15;1.15;;;;;;;;;;1777703;79;26325;-54
2022/10/08 00:09:02;;;;;;;1.30;1.20;;;;;;;;;;1775802;79;26282;-53
2022/10/08 00:11:34;;;;;;;1.17;1.17;;;;;;;;;;1757335;79;26896;-51
2022/10/08 00:14:02;;;;;;;1.75;1.00;;;;;;;;;;1775545;79;27222;-54
2022/10/08 00:16:30;;;;;;;1.37;1.32;;;;;;;;;;1790196;79;26287;-53
2022/10/08 00:19:00;;;;;;;1.00;1.00;;;;;;;;;;1772754;79;26344;-53
2022/10/08 00:21:28;;;;;;;1.10;1.10;;;;;;;;;;1762754;79;26307;-52
2022/10/08 00:23:56;;;;;;;1.00;1.00;;;;;;;;;;1791319;79;26747;-53
2022/10/08 00:26:25;;;;;;;1.30;1.30;;;;;;;;;;1754685;79;26368;-51
2022/10/08 00:28:54;;;;;;;0.93;0.93;;;;;;;;;;1757145;79;26391;-51
2022/10/08 00:31:23;;;;;;;0.95;0.95;;;;;;;;;;1750365;79;27398;-50
2022/10/08 00:33:53;;;;;;;1.25;1.00;;;;;;;;;;1782576;79;26353;-51
2022/10/08 00:36:20;;;;;;;1.10;1.00;;;;;;;;;;1756292;79;26303;-52
2022/10/08 00:38:48;;;;;;;1.37;0.90;;;;;;;;;;1772944;79;26753;-52
2022/10/08 00:41:17;;;;;;;0.90;0.90;;;;;;;;;;1767745;79;26318;-52
2022/10/08 00:43:50;;;;;;;0.80;0.80;;;;;;;;;;1756794;79;26325;-53
2022/10/08 00:46:37;;;;;;;0.95;0.93;;;;;;;;;;1776650;79;26398;-52
2022/10/08 00:49:06;;;;;;;0.80;0.80;;;;;;;;;;1751733;79;26298;-51
2022/10/08 00:51:36;;;;;;;0.90;0.90;;;;;;;;;;1757429;79;26279;-51
2022/10/08 00:54:04;;;;;;;0.90;0.90;;;;;;;;;;1779910;79;27405;-52
2022/10/08 00:56:33;;;;;;;0.70;0.70;;;;;;;;;;1778558;79;26369;-53
2022/10/08 00:59:01;;;;;;;0.80;0.80;;;;;;;;;;1775133;79;26373;-54
2022/10/08 01:01:28;;;;;;;0.90;0.90;;;;;;;;;;1762053;79;26773;-52
2022/10/08 01:03:56;;;;;;;0.80;0.80;;;;;;;;;;1776953;79;26231;-53
2022/10/08 01:06:28;;;;;;;0.85;0.85;;;;;;;;;;1760363;79;26752;-52
2022/10/08 01:09:06;;;;;;;0.80;0.80;;;;;;;;;;1750649;79;26251;-52
2022/10/08 01:11:34;;;;;;;0.80;0.80;;;;;;;;;;1700437;83;26386;-54
2022/10/08 01:14:12;;;;;;;0.80;0.80;;;;;;;;;;1787584;79;26256;-54
2022/10/08 01:16:41;;;;;;;0.80;0.80;;;;;;;;;;1779839;79;26299;-55
2022/10/08 01:19:13;;;;;;;0.70;0.70;;;;;;;;;;1796890;79;26345;-52
2022/10/08 01:21:42;;;;;;;0.82;0.82;;;;;;;;;;1777943;79;26778;-51
2022/10/08 01:24:11;;;;;;;0.80;0.80;;;;;;;;;;1750159;79;26305;-52
2022/10/08 01:26:42;;;;;;;0.80;0.80;;;;;;;;;;1783888;79;26264;-51
2022/10/08 01:29:17;;;;;;;0.50;0.50;;;;;;;;;;1766397;79;26282;-53
2022/10/08 01:31:46;;;;;;;0.90;0.90;;;;;;;;;;1750259;79;26297;-49
2022/10/08 01:34:15;;;;;;;0.62;0.62;;;;;;;;;;1752179;79;26353;-51
2022/10/08 01:36:44;;;;;;;0.65;0.65;;;;;;;;;;1759809;79;26342;-52
2022/10/08 01:39:14;;;;;;;0.75;0.75;;;;;;;;;;1774415;79;26295;-51
2022/10/08 01:41:42;;;;;;;0.80;0.80;;;;;;;;;;1758023;79;26325;-54
2022/10/08 01:44:11;;;;;;;0.68;0.68;;;;;;;;;;1768766;79;26810;-54
2022/10/08 01:46:40;;;;;;;0.70;0.70;;;;;;;;;;1760066;79;26809;-52
2022/10/08 01:49:09;;;;;;;0.60;0.60;;;;;;;;;;1750296;79;26291;-54
2022/10/08 01:51:38;;;;;;;0.68;0.65;;;;;;;;;;1781146;79;26273;-50
2022/10/08 01:54:06;;;;;;;0.65;0.65;;;;;;;;;;1802797;78;26280;-52
2022/10/08 01:56:35;;;;;;;0.70;0.70;;;;;;;;;;1807814;79;26330;-53
2022/10/08 01:59:05;;;;;;;0.60;0.60;;;;;;;;;;1807494;79;26307;-50
2022/10/08 02:01:34;;;;;;;0.60;0.60;;;;;;;;;;1800476;79;26318;-51
2022/10/08 02:06:49;;;;;;;0.75;0.75;;;;;;;;;;1775943;79;26300;-52
2022/10/08 02:09:16;;;;;;;0.85;0.60;;;;;;;;;;1782132;79;26280;-52
2022/10/08 02:11:43;;;;;;;0.45;0.45;;;;;;;;;;1773189;79;26752;-54
2022/10/08 02:14:11;;;;;;;0.50;0.50;;;;;;;;;;1774231;79;26318;-54
2022/10/08 02:16:39;;;;;;;0.68;0.65;;;;;;;;;;1768754;79;26295;-52
2022/10/08 02:19:11;;;;;;;0.68;0.68;;;;;;;;;;1764791;79;26286;-53
2022/10/08 02:21:40;;;;;;;0.50;0.50;;;;;;;;;;1768201;79;26711;-55
2022/10/08 02:24:08;;;;;;;0.65;0.65;;;;;;;;;;1762286;79;26283;-48
2022/10/08 02:26:39;;;;;;;0.70;0.70;;;;;;;;;;1768268;79;26312;-54
2022/10/08 02:29:14;;;;;;;0.53;0.40;;;;;;;;;;1771263;79;26307;-54
2022/10/08 02:31:46;;;;;;;0.33;0.33;;;;;;;;;;1775705;79;26299;-56
2022/10/08 02:34:17;;;;;;;0.50;0.50;;;;;;;;;;1769935;79;26298;-53
2022/10/08 02:36:46;;;;;;;0.40;0.40;;;;;;;;;;1773421;79;26795;-53
2022/10/08 02:39:15;;;;;;;0.40;0.40;;;;;;;;;;1763440;79;26662;-51
2022/10/08 02:41:50;;;;;;;0.40;0.40;;;;;;;;;;1761962;79;26290;-51
2022/10/08 02:44:22;;;;;;;0.53;0.47;;;;;;;;;;1774498;79;26368;-50
2022/10/08 02:46:50;;;;;;;0.65;0.65;;;;;;;;;;1776321;79;26342;-53
2022/10/08 02:49:19;;;;;;;0.60;0.60;;;;;;;;;;1770928;79;26274;-53
2022/10/08 02:51:48;;;;;;;0.50;0.50;;;;;;;;;;1769582;79;27287;-52
2022/10/08 02:54:17;;;;;;;0.42;0.42;;;;;;;;;;1768643;79;26330;-53
2022/10/08 02:56:51;;;;;;;0.45;0.45;;;;;;;;;;1770187;79;26303;-54
2022/10/08 02:59:19;;;;;;;1.07;0.62;;;;;;;;;;1774287;79;26348;-52
2022/10/08 03:01:54;;;;;;;0.60;0.60;;;;;;;;;;1775742;79;26631;-55
2022/10/08 03:04:23;;;;;;;0.57;0.57;;;;;;;;;;1758120;80;26805;-51
2022/10/08 03:06:51;;;;;;;0.93;0.60;;;;;;;;;;1746721;80;26792;-53
2022/10/08 03:09:20;;;;;;;0.70;0.70;;;;;;;;;;1733638;81;26327;-53
2022/10/08 03:11:47;;;;;;;0.60;0.60;;;;;;;;;;1724907;80;26263;-52
2022/10/08 03:14:16;;;;;;;0.60;0.60;;;;;;;;;;1745009;80;26776;-53
2022/10/08 03:16:45;;;;;;;0.60;0.60;;;;;;;;;;1737349;80;26304;-50
2022/10/08 03:19:13;;;;;;;0.50;0.50;;;;;;;;;;1756600;81;26353;-53
2022/10/08 03:21:42;;;;;;;0.40;0.40;;;;;;;;;;1729705;81;26489;-52
2022/10/08 03:24:10;;;;;;;0.60;0.60;;;;;;;;;;1751846;80;26763;-49
2022/10/08 03:26:37;;;;;;;0.60;0.60;;;;;;;;;;1739977;81;26248;-50
2022/10/08 03:29:05;;;;;;;1.25;0.53;;;;;;;;;;1736369;81;26699;-49
2022/10/08 03:31:32;;;;;;;1.05;0.60;;;;;;;;;;1748849;81;26288;-53
2022/10/08 03:34:00;;;;;;;0.50;0.50;;;;;;;;;;1732487;81;26437;-48
2022/10/08 03:36:28;;;;;;;0.40;0.40;;;;;;;;;;1734999;80;26305;-52
2022/10/08 03:38:55;;;;;;;0.40;0.40;;;;;;;;;;1746531;80;26755;-55
2022/10/08 03:41:22;;;;;;;1.12;0.37;;;;;;;;;;1720046;81;26822;-49
2022/10/08 03:43:50;;;;;;;1.47;0.60;;;;;;;;;;1720162;81;26401;-50
2022/10/08 03:46:17;;;;;;;0.30;0.30;;;;;;;;;;1736137;81;26331;-52
2022/10/08 03:48:46;;;;;;;0.50;0.50;;;;;;;;;;1738278;81;27227;-55
2022/10/08 03:51:14;;;;;;;0.50;0.50;;;;;;;;;;1738589;81;26522;-53
2022/10/08 03:53:42;;;;;;;0.57;0.57;;;;;;;;;;1742795;81;26359;-50
2022/10/08 03:56:17;;;;;;;0.40;0.40;;;;;;;;;;1735116;81;26347;-52
2022/10/08 03:58:44;;;;;;;0.55;0.42;;;;;;;;;;1738689;80;26265;-49
2022/10/08 04:01:13;;;;;;;0.57;0.50;;;;;;;;;;1769991;81;26718;-54
2022/10/08 04:03:40;;;;;;;0.40;0.40;;;;;;;;;;1785318;78;26285;-54
2022/10/08 04:06:08;;;;;;;0.65;0.65;;;;;;;;;;1788918;78;26791;-52
2022/10/08 04:08:35;;;;;;;0.40;0.40;;;;;;;;;;1788579;78;26287;-51
2022/10/08 04:11:07;;;;;;;0.50;0.50;;;;;;;;;;1805194;78;26323;-53
2022/10/08 04:13:35;;;;;;;0.40;0.40;;;;;;;;;;1794126;78;26228;-53
2022/10/08 04:16:04;;;;;;;0.57;0.57;;;;;;;;;;1793813;78;25853;-53
2022/10/08 04:18:31;;;;;;;0.50;0.50;;;;;;;;;;1795602;78;26341;-55
2022/10/08 04:20:59;;;;;;;0.30;0.30;;;;;;;;;;1806874;78;26783;-53
2022/10/08 04:23:27;;;;;;;0.40;0.40;;;;;;;;;;1806130;78;26227;-55
2022/10/08 04:25:54;;;;;;;0.50;0.47;;;;;;;;;;1802815;78;26681;-50
2022/10/08 04:28:22;;;;;;;0.65;0.55;;;;;;;;;;1802482;78;26316;-53
2022/10/08 04:30:56;;;;;;;0.55;0.55;;;;;;;;;;1798288;78;26275;-53
2022/10/08 04:33:23;;;;;;;0.42;0.42;;;;;;;;;;1807044;78;26233;-54
2022/10/08 04:35:50;;;;;;;3.70;0.60;;;;;;;;;;1800574;78;26688;-50
2022/10/08 04:38:17;;;;;;;2.47;0.60;;;;;;;;;;1801303;78;27464;-58
2022/10/08 04:40:45;;;;;;;1.05;0.40;;;;;;;;;;1799444;78;27196;-59
2022/10/08 04:43:12;;;;;;;1.20;0.60;;;;;;;;;;1807715;77;26782;-59
2022/10/08 04:45:46;;;;;;;0.85;0.42;;;;;;;;;;1789105;78;26250;-59
2022/10/08 04:48:13;;;;;;;0.50;0.50;;;;;;;;;;1799868;78;26793;-58
2022/10/08 04:50:40;;;;;;;0.50;0.50;;;;;;;;;;1803423;78;26657;-58
2022/10/08 04:53:08;;;;;;;1.35;0.55;;;;;;;;;;1795567;78;26678;-57
2022/10/08 04:55:35;;;;;;;2.15;0.68;;;;;;;;;;1799928;78;26278;-57
2022/10/08 04:58:02;;;;;;;0.40;0.40;;;;;;;;;;1788462;78;26273;-54
2022/10/08 05:00:30;;;;;;;0.60;0.60;;;;;;;;;;1782530;78;27913;-56
2022/10/08 05:02:57;;;;;;;0.78;0.60;;;;;;;;;;1799365;78;26233;-57
2022/10/08 05:05:24;;;;;;;0.75;0.60;;;;;;;;;;1801842;78;26260;-57
2022/10/08 05:07:55;;;;;;;0.50;0.50;;;;;;;;;;1792696;78;26407;-57
2022/10/08 05:10:22;;;;;;;0.53;0.53;;;;;;;;;;1793786;78;26263;-53
2022/10/08 05:12:50;;;;;;;1.22;0.37;;;;;;;;;;1782421;78;26247;-53
2022/10/08 05:15:17;;;;;;;0.50;0.50;;;;;;;;;;1784963;78;26300;-54
2022/10/08 05:17:44;;;;;;;0.40;0.40;;;;;;;;;;1799512;78;26317;-54
2022/10/08 05:20:11;;;;;;;0.40;0.40;;;;;;;;;;1801232;78;26230;-54
2022/10/08 05:22:39;;;;;;;0.82;0.45;;;;;;;;;;1793666;78;26290;-55
2022/10/08 05:25:06;;;;;;;0.57;0.25;;;;;;;;;;1794154;78;26306;-56
2022/10/08 05:27:34;;;;;;;0.50;0.50;;;;;;;;;;1794620;78;26225;-54
2022/10/08 05:30:02;;;;;;;0.40;0.40;;;;;;;;;;1783010;78;26281;-55
2022/10/08 05:32:29;;;;;;;0.33;0.33;;;;;;;;;;1792786;78;26306;-55
2022/10/08 05:34:56;;;;;;;0.45;0.35;;;;;;;;;;1797561;78;26286;-51
2022/10/08 05:37:23;;;;;;;0.60;0.47;;;;;;;;;;1793609;78;26254;-56
2022/10/08 05:39:51;;;;;;;0.53;0.53;;;;;;;;;;1793015;78;26231;-56
2022/10/08 05:42:18;;;;;;;0.50;0.50;;;;;;;;;;1794649;78;26602;-55
2022/10/08 05:44:45;;;;;;;1.07;0.53;;;;;;;;;;1809860;78;25292;-57
2022/10/08 05:47:12;;;;;;;0.30;0.30;;;;;;;;;;1807016;78;26237;-53
2022/10/08 05:49:40;;;;;;;0.65;0.40;;;;;;;;;;1790423;78;26293;-52
2022/10/08 05:52:07;;;;;;;0.40;0.40;;;;;;;;;;1796322;78;26234;-53
2022/10/08 05:54:34;;;;;;;1.55;0.40;;;;;;;;;;1804814;78;26228;-54
2022/10/08 05:57:02;;;;;;;1.27;0.60;;;;;;;;;;1807022;78;26237;-51
2022/10/08 05:59:29;;;;;;;0.50;0.50;;;;;;;;;;1784704;78;26254;-51
2022/10/08 06:01:56;;;;;;;3.30;0.60;;;;;;;;;;1794493;78;26627;-52
2022/10/08 06:04:24;;;;;;;2.37;0.50;;;;;;;;;;1806808;78;26524;-54
2022/10/08 06:06:51;;;;;;;1.47;0.53;;;;;;;;;;1789992;78;26159;-52
2022/10/08 06:09:19;;;;;;;4.20;0.72;;;;;;;;;;1805270;78;26341;-51
2022/10/08 06:11:47;;;;;;;1.22;0.60;;;;;;;;;;1782469;78;26506;-50
2022/10/08 06:14:19;;;;;;;0.53;0.53;;;;;;;;;;1780824;78;26337;-52
2022/10/08 06:16:43;;;;;;;2.08;0.60;;;;;;;;;;1795887;78;26809;-53
2022/10/08 06:19:11;;;;;;;2.75;0.55;;;;;;;;;;1788416;78;26631;-49
2022/10/08 06:21:38;;;;;;;1.42;0.62;;;;;;;;;;1805168;78;26234;-54
2022/10/08 06:24:06;;;;;;;0.88;0.50;;;;;;;;;;1802644;78;26255;-53
2022/10/08 06:26:35;;;;;;;2.12;0.50;;;;;;;;;;1801920;78;26796;-52
2022/10/08 06:29:06;;;;;;;0.55;0.55;;;;;;;;;;1786279;78;26327;-53
2022/10/08 06:31:34;;;;;;;0.60;0.60;;;;;;;;;;1804351;78;26239;-54
2022/10/08 06:34:04;;;;;;;0.50;0.50;;;;;;;;;;1798284;78;26224;-53
2022/10/08 06:36:32;;;;;;;1.30;0.55;;;;;;;;;;1798045;78;26282;-51
2022/10/08 06:39:01;;;;;;;1.25;0.42;;;;;;;;;;1781306;78;26295;-52
2022/10/08 06:41:35;;;;;;;0.33;0.33;;;;;;;;;;1797852;78;27151;-52
2022/10/08 06:44:03;;;;;;;1.22;0.60;;;;;;;;;;1799533;78;26245;-54
2022/10/08 06:46:31;;;;;;;0.33;0.33;;;;;;;;;;1807227;78;26280;-54
2022/10/08 06:48:59;;;;;;;0.40;0.40;;;;;;;;;;1800683;78;27325;-52
2022/10/08 06:51:27;;;;;;;0.40;0.40;;;;;;;;;;1800590;78;26797;-51
2022/10/08 06:53:55;;;;;;;3.65;0.60;;;;;;;;;;1807041;78;26214;-53
2022/10/08 06:56:24;;;;;;;0.85;0.50;;;;;;;;;;1801060;78;26349;-56
2022/10/08 06:58:52;;;;;;;1.95;0.50;;;;;;;;;;1791980;78;26744;-51
2022/10/08 07:01:23;;;;;;;1.60;0.55;;;;;;;;;;1818935;78;26224;-52
2022/10/08 07:03:51;;;;;;;1.45;0.60;;;;;;;;;;1837744;78;26231;-54
2022/10/08 07:06:19;;;;;;;2.62;0.40;;;;;;;;;;1826588;78;27042;-54
2022/10/08 07:08:47;;;;;;;0.65;0.50;;;;;;;;;;1793507;78;26329;-54
2022/10/08 07:11:15;;;;;;;0.78;0.45;;;;;;;;;;1805477;78;26694;-54
2022/10/08 07:13:43;;;;;;;1.20;0.50;;;;;;;;;;1799073;78;26704;-53
2022/10/08 07:16:12;;;;;;;0.57;0.50;;;;;;;;;;1783822;78;26231;-53
2022/10/08 07:18:40;;;;;;;1.98;0.70;;;;;;;;;;1790750;78;26248;-55
2022/10/08 07:21:08;;;;;;;2.50;0.60;;;;;;;;;;1813306;78;26675;-55
2022/10/08 07:23:35;;;;;;;0.90;0.70;;;;;;;;;;1789624;78;26231;-51
2022/10/08 07:26:08;;;;;;;0.95;0.60;;;;;;;;;;1801529;78;26222;-49
2022/10/08 07:28:37;;;;;;;1.25;0.70;;;;;;;;;;1807065;78;26281;-53
2022/10/08 07:31:08;;;;;;;4.35;0.82;;;;;;;;;;1790648;78;26337;-53
2022/10/08 07:33:35;;;;;;;0.80;0.80;;;;;;;;;;1783505;78;26711;-52
2022/10/08 07:36:07;;;;;;;4.50;1.17;;;;;;;;;;1789895;78;26469;-53
2022/10/08 07:38:35;;;;;;;2.27;0.90;;;;;;;;;;1786269;78;26265;-51
2022/10/08 07:41:02;;;;;;;1.47;0.90;;;;;;;;;;1789050;78;26242;-54
2022/10/08 07:43:29;;;;;;;2.35;0.82;;;;;;;;;;1789429;78;26288;-56
2022/10/08 07:45:57;;;;;;;2.42;0.82;;;;;;;;;;1785629;78;25730;-54
2022/10/08 07:48:24;;;;;;;1.72;0.88;;;;;;;;;;1781124;78;26282;-56
2022/10/08 07:50:51;;;;;;;2.00;0.80;;;;;;;;;;1792167;78;26730;-55
2022/10/08 07:53:18;;;;;;;1.50;0.80;;;;;;;;;;1789569;78;26952;-53
2022/10/08 07:55:46;;;;;;;6.37;0.70;;;;;;;;;;1795923;78;26731;-51
2022/10/08 07:58:13;;;;;;;2.55;0.90;;;;;;;;;;1794446;78;26857;-53
2022/10/08 08:00:40;;;;;;;1.90;1.00;;;;;;;;;;1790415;78;27338;-49
2022/10/08 08:03:09;;;;;;;5.10;1.17;;;;;;;;;;1797295;78;26265;-51
2022/10/08 08:05:36;;;;;;;7.37;1.40;;;;;;;;;;1782780;78;26259;-54
2022/10/08 08:08:04;;;;;;;10.88;1.50;;;;;;;;;;1786804;78;26588;-52
2022/10/08 08:10:31;;;;;;;5.30;1.42;;;;;;;;;;1784099;78;26788;-52
2022/10/08 08:12:58;;;;;;;5.83;1.10;;;;;;;;;;1795722;78;26747;-53
2022/10/08 08:15:25;;;;;;;5.55;1.20;;;;;;;;;;1795144;78;27576;-53
2022/10/08 08:17:53;;;;;;;10.82;1.45;;;;;;;;;;1790834;78;26215;-54
2022/10/08 08:20:20;;;;;;;8.65;1.22;;;;;;;;;;1782143;78;26274;-53
2022/10/08 08:22:47;;;;;;;6.97;1.15;;;;;;;;;;1773185;78;26259;-54
2022/10/08 08:25:15;;;;;;;7.92;1.50;;;;;;;;;;1796133;78;26237;-52
2022/10/08 08:27:42;;;;;;;4.00;1.00;;;;;;;;;;1788225;78;26296;-54
2022/10/08 08:30:10;;;;;;;2.08;1.05;;;;;;;;;;1805335;78;26226;-52
2022/10/08 08:32:37;;;;;;;4.53;1.20;;;;;;;;;;1797397;78;26231;-53
2022/10/08 08:35:05;;;;;;;5.70;1.70;;;;;;;;;;1781274;78;26305;-54
2022/10/08 08:37:32;;;;;;;4.85;1.10;;;;;;;;;;1789526;78;26229;-51
2022/10/08 08:39:59;;;;;;;4.20;1.15;;;;;;;;;;1790477;78;26332;-54
2022/10/08 08:42:29;;;;;;;4.10;1.10;;;;;;;;;;1806018;78;26225;-53
2022/10/08 08:44:58;;;;;;;1.37;0.82;;;;;;;;;;1798671;78;26695;-53
2022/10/08 08:47:27;;;;;;;2.95;1.00;;;;;;;;;;1802078;78;26300;-52
2022/10/08 08:49:59;;;;;;;1.75;1.00;;;;;;;;;;1803958;78;26210;-54
2022/10/08 08:52:28;;;;;;;6.05;1.00;;;;;;;;;;1788014;78;26232;-54
2022/10/08 08:54:55;;;;;;;0.93;0.88;;;;;;;;;;1820302;78;26247;-52
2022/10/08 08:57:30;;;;;;;2.35;1.00;;;;;;;;;;1832470;78;26224;-54
2022/10/08 08:59:58;;;;;;;1.45;1.00;;;;;;;;;;1823645;78;26717;-52
2022/10/08 09:02:27;;;;;;;2.25;0.80;;;;;;;;;;1805275;78;26304;-50
2022/10/08 09:04:57;;;;;;;2.02;0.88;;;;;;;;;;1793569;78;26350;-53
2022/10/08 09:07:25;;;;;;;1.87;0.78;;;;;;;;;;1778284;78;26894;-54
2022/10/08 09:09:54;;;;;;;1.25;0.80;;;;;;;;;;1768021;79;26281;-53
2022/10/08 09:12:23;;;;;;;1.50;0.80;;;;;;;;;;1764056;79;26303;-52
2022/10/08 09:14:54;;;;;;;3.37;0.80;;;;;;;;;;1773334;79;26356;-52
2022/10/08 09:17:31;;;;;;;2.22;0.80;;;;;;;;;;1758243;79;26307;-52
2022/10/08 09:19:59;;;;;;;1.40;0.75;;;;;;;;;;1777170;79;26311;-54
2022/10/08 09:22:28;;;;;;;0.85;0.80;;;;;;;;;;1776980;79;26291;-54
2022/10/08 09:25:00;;;;;;;2.83;1.00;;;;;;;;;;1759251;79;26310;-54
2022/10/08 09:27:47;;;;;;;0.75;0.70;;;;;;;;;;1776305;79;26309;-53
2022/10/08 09:30:24;;;;;;;1.10;0.90;;;;;;;;;;1749327;79;26856;-52
2022/10/08 09:32:55;;;;;;;1.82;0.68;;;;;;;;;;1749295;79;26298;-56
2022/10/08 09:35:22;;;;;;;3.05;0.90;;;;;;;;;;1768932;79;27560;-52
2022/10/08 09:37:51;;;;;;;0.80;0.65;;;;;;;;;;1773907;79;26337;-54
2022/10/08 09:40:20;;;;;;;2.12;0.60;;;;;;;;;;1772328;79;26361;-53
2022/10/08 09:43:05;;;;;;;1.42;0.70;;;;;;;;;;1787232;79;26362;-54
2022/10/08 09:45:34;;;;;;;1.00;0.70;;;;;;;;;;1749330;79;26805;-54
2022/10/08 09:48:12;;;;;;;0.82;0.80;;;;;;;;;;1764659;79;26775;-55
2022/10/08 09:50:41;;;;;;;0.60;0.60;;;;;;;;;;1763012;79;26270;-52
2022/10/08 09:53:10;;;;;;;0.50;0.50;;;;;;;;;;1761823;79;26376;-54
2022/10/08 09:55:37;;;;;;;1.35;0.68;;;;;;;;;;1749096;79;26369;-55
2022/10/08 09:58:04;;;;;;;1.05;0.70;;;;;;;;;;1766430;79;26298;-53
2022/10/08 10:00:34;;;;;;;0.70;0.70;;;;;;;;;;1790743;79;26581;-55
2022/10/08 10:03:03;;;;;;;0.55;0.55;;;;;;;;;;1773077;79;26350;-53
2022/10/08 10:05:31;;;;;;;1.20;0.55;;;;;;;;;;1760868;79;26273;-52
2022/10/08 10:07:59;;;;;;;0.57;0.57;;;;;;;;;;1772702;78;26322;-53
2022/10/08 10:10:28;;;;;;;0.50;0.50;;;;;;;;;;1782650;79;26314;-53
2022/10/08 10:12:59;;;;;;;0.62;0.62;;;;;;;;;;1762611;79;26340;-54
2022/10/08 10:15:32;;;;;;;0.50;0.47;;;;;;;;;;1773978;78;26284;-55
2022/10/08 10:18:01;;;;;;;0.60;0.60;;;;;;;;;;1778565;79;26299;-55
2022/10/08 10:20:30;;;;;;;0.50;0.50;;;;;;;;;;1773675;79;26292;-52
2022/10/08 10:23:07;;;;;;;1.45;0.68;;;;;;;;;;1776410;79;26303;-52
2022/10/08 10:25:36;;;;;;;0.45;0.45;;;;;;;;;;1764946;79;26365;-52
2022/10/08 10:28:22;;;;;;;0.45;0.45;;;;;;;;;;1781810;79;26357;-55
2022/10/08 10:30:51;;;;;;;0.85;0.60;;;;;;;;;;1757287;79;26286;-52
2022/10/08 10:33:19;;;;;;;0.50;0.50;;;;;;;;;;1741033;79;27383;-53
2022/10/08 10:35:48;;;;;;;0.42;0.42;;;;;;;;;;1763480;78;26794;-52
2022/10/08 10:38:17;;;;;;;0.70;0.70;;;;;;;;;;1779194;78;26785;-53
2022/10/08 10:40:46;;;;;;;1.10;0.65;;;;;;;;;;1776324;78;27601;-51
2022/10/08 10:43:24;;;;;;;0.50;0.50;;;;;;;;;;1782361;79;26767;-54
2022/10/08 10:45:52;;;;;;;0.45;0.45;;;;;;;;;;1773997;79;26286;-54
2022/10/08 10:48:20;;;;;;;2.62;0.60;;;;;;;;;;1778683;78;26418;-55
2022/10/08 10:50:52;;;;;;;0.68;0.50;;;;;;;;;;1761503;79;26305;-55
2022/10/08 10:53:21;;;;;;;1.00;0.50;;;;;;;;;;1769025;79;26295;-51
2022/10/08 10:55:52;;;;;;;0.40;0.40;;;;;;;;;;1793676;78;26418;-53
2022/10/08 10:58:27;;;;;;;0.85;0.60;;;;;;;;;;1743537;79;26738;-54
2022/10/08 11:01:02;;;;;;;1.45;0.42;;;;;;;;;;1781350;79;26353;-54
2022/10/08 11:03:46;;;;;;;0.50;0.50;;;;;;;;;;1754052;79;26297;-52
2022/10/08 11:06:15;;;;;;;0.40;0.40;;;;;;;;;;1775923;79;26338;-54
2022/10/08 11:08:44;;;;;;;0.40;0.40;;;;;;;;;;1772531;79;26325;-54
2022/10/08 11:11:16;;;;;;;0.50;0.50;;;;;;;;;;1760435;79;26314;-50
2022/10/08 11:13:47;;;;;;;0.60;0.60;;;;;;;;;;1769387;79;26376;-51
2022/10/08 11:16:19;;;;;;;1.30;0.50;;;;;;;;;;1748939;79;26321;-54
2022/10/08 11:18:50;;;;;;;0.95;0.80;;;;;;;;;;1765510;79;26373;-55
2022/10/08 11:21:28;;;;;;;2.10;0.68;;;;;;;;;;1791063;79;26301;-53
2022/10/08 11:24:09;;;;;;;1.20;0.50;;;;;;;;;;1794474;79;26338;-53
2022/10/08 11:26:44;;;;;;;0.60;0.60;;;;;;;;;;1777312;79;26268;-54
2022/10/08 11:29:15;;;;;;;0.40;0.40;;;;;;;;;;1757107;79;27118;-53
2022/10/08 11:31:45;;;;;;;1.05;0.60;;;;;;;;;;1769018;79;26766;-52
2022/10/08 11:34:14;;;;;;;3.70;0.50;;;;;;;;;;1779316;79;26825;-57
2022/10/08 11:36:42;;;;;;;0.65;0.40;;;;;;;;;;1771498;79;26248;-57
2022/10/08 11:39:11;;;;;;;0.82;0.40;;;;;;;;;;1781171;79;26532;-58
2022/10/08 11:41:40;;;;;;;0.60;0.60;;;;;;;;;;1774201;79;26294;-55
2022/10/08 11:44:09;;;;;;;0.80;0.50;;;;;;;;;;1771824;79;26356;-55
2022/10/08 11:46:36;;;;;;;1.85;0.60;;;;;;;;;;1762657;79;26630;-53
2022/10/08 11:49:11;;;;;;;0.42;0.42;;;;;;;;;;1766724;79;26325;-52
2022/10/08 11:51:40;;;;;;;0.85;0.60;;;;;;;;;;1766194;79;26297;-51
2022/10/08 11:54:08;;;;;;;0.50;0.50;;;;;;;;;;1777325;79;26287;-52
2022/10/08 11:56:37;;;;;;;1.05;0.50;;;;;;;;;;1777526;79;26286;-54
2022/10/08 11:59:18;;;;;;;0.70;0.60;;;;;;;;;;1775420;79;26701;-52
2022/10/08 12:01:53;;;;;;;0.50;0.50;;;;;;;;;;1768006;79;26283;-55
2022/10/08 12:04:24;;;;;;;1.25;0.60;;;;;;;;;;1769984;79;26834;-56
2022/10/08 12:06:53;;;;;;;0.65;0.62;;;;;;;;;;1775551;79;26703;-54
2022/10/08 12:09:21;;;;;;;0.50;0.50;;;;;;;;;;1762990;79;26731;-54
2022/10/08 12:11:50;;;;;;;0.47;0.45;;;;;;;;;;1777422;79;26267;-53
2022/10/08 12:14:19;;;;;;;0.60;0.60;;;;;;;;;;1770099;79;26411;-53
2022/10/08 12:16:54;;;;;;;0.55;0.55;;;;;;;;;;1779717;79;26364;-53
2022/10/08 12:19:35;;;;;;;0.60;0.60;;;;;;;;;;1781442;79;27430;-53
2022/10/08 12:22:16;;;;;;;1.30;0.50;;;;;;;;;;1780856;79;26275;-54
2022/10/08 12:24:46;;;;;;;0.50;0.50;;;;;;;;;;1781589;79;26841;-55
2022/10/08 12:27:18;;;;;;;0.45;0.42;;;;;;;;;;1777016;79;26312;-55
2022/10/08 12:29:55;;;;;;;0.65;0.60;;;;;;;;;;1763280;79;26235;-53
2022/10/08 12:32:24;;;;;;;0.50;0.50;;;;;;;;;;1763845;79;26770;-55
2022/10/08 12:34:52;;;;;;;0.57;0.57;;;;;;;;;;1776616;79;26237;-54
2022/10/08 12:37:37;;;;;;;0.57;0.50;;;;;;;;;;1773579;79;26395;-55
2022/10/08 12:40:12;;;;;;;0.50;0.50;;;;;;;;;;1780600;79;26380;-51
2022/10/08 12:42:40;;;;;;;0.98;0.57;;;;;;;;;;1769078;79;26656;-53
2022/10/08 12:45:09;;;;;;;0.70;0.70;;;;;;;;;;1781663;79;26834;-51
2022/10/08 12:47:44;;;;;;;1.00;0.70;;;;;;;;;;1771069;79;26841;-54
2022/10/08 12:50:25;;;;;;;1.95;0.68;;;;;;;;;;1755887;79;26273;-52
2022/10/08 12:52:52;;;;;;;2.00;0.80;;;;;;;;;;1769459;79;26308;-52
2022/10/08 12:55:21;;;;;;;1.90;0.57;;;;;;;;;;1755767;79;26297;-49
2022/10/08 12:57:49;;;;;;;3.02;0.60;;;;;;;;;;1780316;79;26330;-50
2022/10/08 13:00:24;;;;;;;0.50;0.50;;;;;;;;;;1794211;79;26296;-54
2022/10/08 13:03:03;;;;;;;2.80;0.80;;;;;;;;;;1781922;79;26711;-50
2022/10/08 13:05:32;;;;;;;0.78;0.78;;;;;;;;;;1780149;79;26364;-52
2022/10/08 13:08:01;;;;;;;0.55;0.55;;;;;;;;;;1772294;79;26896;-54
2022/10/08 13:10:29;;;;;;;0.60;0.60;;;;;;;;;;1768407;79;27164;-54
2022/10/08 13:13:03;;;;;;;3.00;0.80;;;;;;;;;;1753841;79;26317;-54
2022/10/08 13:15:32;;;;;;;0.60;0.60;;;;;;;;;;1773477;79;26271;-53
2022/10/08 13:18:01;;;;;;;0.68;0.50;;;;;;;;;;1765136;79;26309;-53
2022/10/08 13:20:28;;;;;;;0.85;0.37;;;;;;;;;;1766869;79;26388;-50
2022/10/08 13:22:55;;;;;;;1.25;0.53;;;;;;;;;;1768975;79;26375;-52
2022/10/08 13:25:33;;;;;;;0.53;0.53;;;;;;;;;;1757158;79;26380;-51
2022/10/08 13:28:07;;;;;;;0.50;0.50;;;;;;;;;;1753051;79;26305;-53
2022/10/08 13:30:34;;;;;;;0.40;0.40;;;;;;;;;;1755535;79;27390;-51
2022/10/08 13:33:06;;;;;;;0.68;0.60;;;;;;;;;;1766470;79;27266;-55
2022/10/08 13:35:33;;;;;;;0.60;0.60;;;;;;;;;;1758903;79;26364;-52
2022/10/08 13:38:02;;;;;;;1.37;0.60;;;;;;;;;;1773700;79;26279;-54
2022/10/08 13:40:29;;;;;;;0.70;0.70;;;;;;;;;;1756692;79;26329;-52
2022/10/08 13:43:01;;;;;;;1.17;0.50;;;;;;;;;;1762242;79;26359;-50
2022/10/08 13:45:33;;;;;;;0.50;0.50;;;;;;;;;;1771569;79;26315;-53
2022/10/08 13:48:00;;;;;;;0.45;0.45;;;;;;;;;;1776237;79;26748;-54
2022/10/08 13:50:27;;;;;;;1.00;0.50;;;;;;;;;;1759773;79;26294;-54
2022/10/08 13:52:56;;;;;;;0.60;0.60;;;;;;;;;;1768892;79;26317;-51
2022/10/08 13:55:28;;;;;;;2.00;0.65;;;;;;;;;;1775428;79;26310;-54
2022/10/08 13:57:56;;;;;;;0.50;0.50;;;;;;;;;;1785060;79;26776;-53
2022/10/08 14:00:23;;;;;;;0.50;0.50;;;;;;;;;;1782637;79;26359;-53
2022/10/08 14:02:51;;;;;;;0.47;0.47;;;;;;;;;;1808553;79;26697;-53
2022/10/08 14:05:19;;;;;;;0.50;0.50;;;;;;;;;;1793811;79;26405;-52
2022/10/08 14:07:47;;;;;;;0.50;0.50;;;;;;;;;;1778883;78;26360;-52
2022/10/08 14:10:14;;;;;;;0.60;0.60;;;;;;;;;;1772890;79;26296;-51
2022/10/08 14:12:41;;;;;;;0.45;0.45;;;;;;;;;;1753939;79;26363;-52
2022/10/08 14:15:10;;;;;;;2.27;0.50;;;;;;;;;;1761983;79;26298;-55
2022/10/08 14:17:37;;;;;;;0.53;0.53;;;;;;;;;;1762181;79;26294;-53
2022/10/08 14:20:05;;;;;;;0.70;0.70;;;;;;;;;;1764064;79;26361;-51
2022/10/08 14:22:37;;;;;;;0.42;0.42;;;;;;;;;;1774737;79;26305;-54
2022/10/08 14:25:01;;;;;;;1.42;0.60;;;;;;;;;;1772387;79;26355;-54
2022/10/08 14:27:29;;;;;;;0.57;0.57;;;;;;;;;;1753687;79;26434;-53
2022/10/08 14:29:56;;;;;;;0.80;0.60;;;;;;;;;;1770842;79;26337;-53
2022/10/08 14:32:23;;;;;;;1.67;0.50;;;;;;;;;;1762011;79;26294;-50
2022/10/08 14:34:50;;;;;;;0.85;0.85;;;;;;;;;;1753724;79;26797;-51
2022/10/08 14:37:18;;;;;;;0.60;0.60;;;;;;;;;;1768555;79;26684;-52
2022/10/08 14:39:45;;;;;;;0.40;0.40;;;;;;;;;;1769676;79;26312;-52
2022/10/08 14:42:12;;;;;;;0.40;0.40;;;;;;;;;;1753685;79;26312;-53
2022/10/08 14:44:40;;;;;;;0.80;0.68;;;;;;;;;;1766213;79;26396;-52
2022/10/08 14:47:07;;;;;;;0.40;0.40;;;;;;;;;;1761740;79;26379;-53
2022/10/08 14:49:34;;;;;;;1.37;0.80;;;;;;;;;;1780812;79;26306;-52
2022/10/08 14:52:01;;;;;;;0.57;0.50;;;;;;;;;;1793153;79;26282;-55
2022/10/08 14:54:29;;;;;;;0.65;0.65;;;;;;;;;;1757536;79;26708;-50
2022/10/08 14:56:56;;;;;;;0.60;0.60;;;;;;;;;;1765880;79;26322;-51
2022/10/08 14:59:23;;;;;;;0.45;0.45;;;;;;;;;;1769123;79;26352;-52